K7BM

Cottonwood Pass Airport

Cottonwood Pass, Colorado, USA
METAR K7BM 192148Z AUTO 20004KT 10SM CLR 06/M13 A3022 RMK AO2
Observed Flight Rules
Nov-19 @ 21:48 UTC (38 minutes ago) Visual Flight Rules
Wind Visibility Clouds
200° at 4 knots 10 miles
  • Clear skies
Temperatures Readings
Current 6°C / 43°F
Dewpoint -13°C / 9°F
Humidity 24%
Altimeter 30.22" Hg
Pressure 1023 hPa
Elevation 2995
METAR K7BM 192148Z AUTO 20004KT 10SM CLR 06/M13 A3022 RMK AO2
Observed Flight Rules
Nov-19 @ 21:48 UTC
(38 minutes ago)
VFR
Wind Visibility
200° at 4 knots 10 miles
Clouds
  • Clear skies
Temperature Dewpoint
6°C / 43°F -13°C / 9°F
Humidity Altimeter Pressure
24% 30.22" Hg 1023 hPa